Pagina principale
METAR-TAF:

METAR-TAF

Aeroporti :

Aeroporto di Rivolto

Udine, Italia

latitudine: 45-59N, longitudine: 013-02E, altezza: 51 m

Osservazione

Il bollettino è stato emesso 9 ore e 16 minuti fa, alle 16:55 UTC
Vento 3 kt da nord/nord-ovest
Temperature 17°C
Umidità 88%
Pressione 1013 hPa
Visibilità: 3000 m
Nubi sparse ad un'altezza di 2000 ft
Nuvoloso ad un'altezza di 3500 ft
foschia

METAR: LIPI 151655Z 34003KT 3000 BR SCT020 BKN035 17/15 Q1013 RMK OVC VIS MIN 3000 WIND THR06 01002KT WIND THR24 01002KT YLO

Ora: 04:11 (02:11 UTC)

Previsione

Il bollettino è stato emesso 15 ore e 11 minuti fa, alle 11:00 UTC
Previsione valida dal 15 alle 12 UTC al 15 alle 21 UTC
Vento 3 kt da direzioni variabili
Visibilità: 2000 m
Nubi sparse ad un'altezza di 1500 ft
Nuvoloso ad un'altezza di 3000 ft
foschia
Temporaneamente
dal 15 alle 12 UTC al 15 alle 21 UTC
Visibilità: 3000 m
pioggia, foschia

TAF: LIPI 151100Z 1512/1521 VRB03KT 2000 BR SCT015 BKN030 TEMPO 1512/1521 3000 RA BR

Osservazioni e previsioni meteorologiche di più di 4000 aeroporti (messaggi METAR e TAF).

Le stazioni disponibili sono rappresentate dai dischi gialli e rossi sulla carta.

Puntare il mouse per vedere il nome della stazione.

Clicca sopra per visualizzare le osservazioni e previsioni meteorologiche.

Per cambiare la mappa : fare clic sui pulsanti verdi con una croce nera per ingrandire, il pulsante verde con un trattino per diminuire, o sulla freccia verde per le mappe adiacenti.


METAR-TAF: